Hovedside
METAR-TAF:

METAR-TAF

Lufthavner :

Teheran, Iran

breddegrad: 35-41N, lengdegrad: 051-21E, høyde over havet: 1204 m

Gjeldene værobservasjon

Denne rapporten ble laget for 32 minutter siden, klokken 21:00 UTC
Flau vind
Temperatur 4°C
Luftfuktighet 44%
Trykk 1016 hPa
Sikt 10 km eller mer
ingen skyer under 1500 m og ingen bygeskyer

METAR: OIII 182100Z 00000KT CAVOK 04/M07 Q1016 A3000 NOSIG

Tid: 01:02 (21:32 UTC)

Varsel

Denne rapporten ble laget for 4 timer og 32 minutter siden, klokken 17:00 UTC
Varsel gyldig fra 18. klokken 18 UTC til 19. klokken 24 UTC
Vind 8 kt fra Vest-nordvest
Sikt: 7000 m
Få skyer i en høyde av 3500 ft
Midlertidig
fra 19. klokken 15 UTC til 19. klokken 21 UTC
Vind 16 kt fra Øst-sørøst

TAF: OIII 181700Z 1818/1924 30004MPS 7000 FEW035 TEMPO 1915/1921 12008MPS

Værobservasjoner og værvarsel for over 4000 flyplasser (METAR- og TAF-rapporter).

Tilgjengelige stasjoner er representert av de røde og gule prikkene på kartet.

Hold musepekeren over prikken for å se navnet på stasjonen.

Klikk så for å se værobservasjoner og -varsler.

For å forandre kartet kan du klikke på den grønne knappen med svart kryss for å zoome inn, på den grønne knappen med strek for å zoome ut, eller på de grønne pilene for å se tilstøtende kart.


METAR-TAF: